Time;durP1;ratioP1;P1;durP2;ratioP2;P2;SDS_P1;SDS_P2;PMS_P1;PMS_P2;Temp;Humidity;BMP_temperature;BMP_pressure;BME280_temperature;BME280_humidity;BME280_pressure;Samples;Min_cycle;Max_cycle;Signal;HPM_P1;HPM_P2
2023/11/21 00:00:27;;;;;;;3.47;2.10;;;;;;;;;;4900180;29;20056;-82
2023/11/21 00:02:54;;;;;;;4.30;2.67;;;;;;;;;;4911032;29;20047;-82
2023/11/21 00:05:24;;;;;;;4.80;2.38;;;;;;;;;;4901098;29;20052;-82
2023/11/21 00:07:52;;;;;;;5.50;3.25;;;;;;;;;;4915911;29;20048;-82
2023/11/21 00:10:19;;;;;;;3.22;2.30;;;;;;;;;;4914542;29;20056;-81
2023/11/21 00:12:54;;;;;;;4.78;2.28;;;;;;;;;;4917175;29;20048;-81
2023/11/21 00:15:24;;;;;;;6.55;2.75;;;;;;;;;;4915757;29;20066;-82
2023/11/21 00:17:51;;;;;;;4.03;2.42;;;;;;;;;;4917549;29;20056;-82
2023/11/21 00:20:21;;;;;;;3.72;2.03;;;;;;;;;;4916771;29;20734;-82
2023/11/21 00:22:51;;;;;;;5.10;2.00;;;;;;;;;;4901506;29;20052;-82
2023/11/21 00:25:18;;;;;;;4.68;2.33;;;;;;;;;;4902300;29;20419;-82
2023/11/21 00:27:49;;;;;;;5.60;2.70;;;;;;;;;;4916952;29;20403;-82
2023/11/21 00:30:16;;;;;;;3.67;2.03;;;;;;;;;;4899306;29;20051;-82
2023/11/21 00:32:44;;;;;;;5.88;2.10;;;;;;;;;;4902049;29;20059;-82
2023/11/21 00:35:11;;;;;;;4.55;2.25;;;;;;;;;;4922936;29;20051;-82
2023/11/21 00:37:38;;;;;;;3.40;2.08;;;;;;;;;;4917765;29;20055;-82
2023/11/21 00:40:09;;;;;;;9.30;3.22;;;;;;;;;;4919251;29;20054;-82
2023/11/21 00:42:36;;;;;;;2.92;2.35;;;;;;;;;;4920257;29;20340;-82
2023/11/21 00:45:09;;;;;;;4.25;1.98;;;;;;;;;;4902642;29;20052;-82
2023/11/21 00:47:39;;;;;;;3.10;2.38;;;;;;;;;;4916272;29;20044;-82
2023/11/21 00:50:09;;;;;;;6.78;2.53;;;;;;;;;;4914683;29;20404;-82
2023/11/21 00:52:36;;;;;;;3.08;2.25;;;;;;;;;;4896710;29;20048;-82
2023/11/21 00:55:04;;;;;;;5.13;3.25;;;;;;;;;;4902037;29;20056;-82
2023/11/21 00:57:31;;;;;;;3.92;2.67;;;;;;;;;;4901390;29;20052;-81
2023/11/21 00:59:59;;;;;;;4.25;1.98;;;;;;;;;;4902052;29;20165;-82
2023/11/21 01:02:33;;;;;;;3.58;2.10;;;;;;;;;;4914476;29;20071;-82
2023/11/21 01:05:00;;;;;;;5.47;2.95;;;;;;;;;;4901752;29;20052;-82
2023/11/21 01:07:27;;;;;;;7.13;2.78;;;;;;;;;;4905096;29;20047;-82
2023/11/21 01:09:56;;;;;;;3.63;1.98;;;;;;;;;;4918027;29;20534;-82
2023/11/21 01:12:24;;;;;;;5.22;2.72;;;;;;;;;;4916089;29;20048;-82
2023/11/21 01:14:54;;;;;;;6.07;2.33;;;;;;;;;;4917341;29;20055;-82
2023/11/21 01:17:23;;;;;;;2.83;2.30;;;;;;;;;;4893354;29;20044;-82
2023/11/21 01:19:56;;;;;;;3.28;2.20;;;;;;;;;;4925082;29;20080;-82
2023/11/21 01:22:28;;;;;;;4.70;2.75;;;;;;;;;;4905716;29;20074;-82
2023/11/21 01:24:57;;;;;;;6.72;2.80;;;;;;;;;;4916746;29;20059;-82
2023/11/21 01:27:27;;;;;;;3.08;2.47;;;;;;;;;;4901403;29;20057;-82
2023/11/21 01:29:55;;;;;;;3.33;2.10;;;;;;;;;;4902388;29;20075;-82
2023/11/21 01:32:23;;;;;;;5.97;1.77;;;;;;;;;;4901810;29;20063;-82
2023/11/21 01:34:51;;;;;;;5.63;3.35;;;;;;;;;;4923921;29;20051;-82
2023/11/21 01:37:22;;;;;;;4.38;2.33;;;;;;;;;;4918273;29;20036;-82
2023/11/21 01:39:49;;;;;;;3.33;1.63;;;;;;;;;;4901342;29;20427;-82
2023/11/21 01:42:19;;;;;;;4.43;3.28;;;;;;;;;;4915147;29;20064;-82
2023/11/21 01:44:49;;;;;;;5.50;2.03;;;;;;;;;;4901794;29;20052;-82
2023/11/21 01:47:17;;;;;;;2.65;1.58;;;;;;;;;;4915504;29;20597;-82
2023/11/21 01:49:45;;;;;;;4.55;2.60;;;;;;;;;;4917014;29;20052;-82
2023/11/21 01:52:15;;;;;;;3.97;2.30;;;;;;;;;;4915421;29;20059;-82
2023/11/21 01:54:47;;;;;;;3.63;2.33;;;;;;;;;;4898958;29;20056;-82
2023/11/21 01:57:15;;;;;;;5.45;1.65;;;;;;;;;;4901004;29;20071;-82
2023/11/21 01:59:45;;;;;;;2.40;1.85;;;;;;;;;;4917518;29;20454;-82
2023/11/21 02:02:13;;;;;;;2.75;2.30;;;;;;;;;;4897871;29;20403;-82
2023/11/21 02:04:40;;;;;;;2.75;2.13;;;;;;;;;;4900209;29;20060;-82
2023/11/21 02:07:07;;;;;;;2.97;2.25;;;;;;;;;;4900659;29;20055;-82
2023/11/21 02:09:38;;;;;;;9.38;3.42;;;;;;;;;;4900323;29;20527;-82
2023/11/21 02:12:08;;;;;;;7.53;2.30;;;;;;;;;;4899444;29;20052;-82
2023/11/21 02:14:38;;;;;;;9.45;1.83;;;;;;;;;;4913645;29;20063;-82
2023/11/21 02:17:05;;;;;;;4.55;2.00;;;;;;;;;;4904476;29;20051;-82
2023/11/21 02:19:38;;;;;;;3.47;1.95;;;;;;;;;;4901809;29;20071;-82
2023/11/21 02:22:06;;;;;;;4.05;2.30;;;;;;;;;;4895246;29;20059;-82
2023/11/21 02:24:37;;;;;;;2.58;1.70;;;;;;;;;;4904417;29;20053;-82
2023/11/21 02:27:07;;;;;;;4.95;2.00;;;;;;;;;;4915641;29;20052;-82
2023/11/21 02:29:34;;;;;;;3.72;1.70;;;;;;;;;;4900421;29;20048;-82
2023/11/21 02:32:05;;;;;;;6.18;1.98;;;;;;;;;;4911985;29;20044;-82
2023/11/21 02:34:33;;;;;;;4.50;3.30;;;;;;;;;;4897930;29;20056;-81
2023/11/21 02:37:00;;;;;;;5.85;1.73;;;;;;;;;;4915340;29;20048;-81
2023/11/21 02:39:27;;;;;;;3.88;2.20;;;;;;;;;;4915231;29;20052;-82
2023/11/21 02:41:55;;;;;;;4.22;2.33;;;;;;;;;;4914925;29;20055;-82
2023/11/21 02:44:23;;;;;;;5.63;2.22;;;;;;;;;;4915594;29;20052;-82
2023/11/21 02:46:50;;;;;;;5.97;2.40;;;;;;;;;;4911281;29;20045;-82
2023/11/21 02:49:17;;;;;;;4.93;2.15;;;;;;;;;;4915647;29;20052;-82
2023/11/21 02:51:44;;;;;;;5.07;2.30;;;;;;;;;;4916988;29;20052;-82
2023/11/21 02:54:12;;;;;;;4.93;1.95;;;;;;;;;;4899368;29;20063;-82
2023/11/21 02:56:41;;;;;;;5.30;1.38;;;;;;;;;;4896327;29;20059;-82
2023/11/21 02:59:09;;;;;;;4.50;2.03;;;;;;;;;;4915740;29;20052;-82
2023/11/21 03:01:37;;;;;;;2.83;1.65;;;;;;;;;;4917828;29;20393;-82
2023/11/21 03:04:04;;;;;;;5.22;2.83;;;;;;;;;;4924344;29;20479;-81
2023/11/21 03:06:31;;;;;;;3.85;2.00;;;;;;;;;;4930988;29;20059;-81
2023/11/21 03:08:58;;;;;;;5.72;2.00;;;;;;;;;;4899767;29;20052;-82
2023/11/21 03:11:28;;;;;;;3.42;1.90;;;;;;;;;;4914501;29;20043;-82
2023/11/21 03:13:58;;;;;;;3.65;1.50;;;;;;;;;;4915839;29;20063;-82
2023/11/21 03:16:26;;;;;;;4.85;1.77;;;;;;;;;;4915837;29;20059;-82
2023/11/21 03:18:53;;;;;;;2.35;1.63;;;;;;;;;;4899518;29;20052;-81
2023/11/21 03:21:20;;;;;;;2.28;1.77;;;;;;;;;;4901229;29;20063;-82
2023/11/21 03:23:48;;;;;;;2.97;1.92;;;;;;;;;;4900067;29;20040;-82
2023/11/21 03:26:15;;;;;;;1.92;1.58;;;;;;;;;;4898783;29;20056;-82
2023/11/21 03:28:46;;;;;;;2.88;1.85;;;;;;;;;;4892253;29;20056;-81
2023/11/21 03:31:17;;;;;;;4.20;1.67;;;;;;;;;;4925963;29;20683;-81
2023/11/21 03:33:50;;;;;;;2.25;1.67;;;;;;;;;;4910675;29;20036;-81
2023/11/21 03:36:21;;;;;;;4.57;2.05;;;;;;;;;;4912621;29;20048;-82
2023/11/21 03:38:49;;;;;;;2.72;1.73;;;;;;;;;;4911329;29;20074;-81
2023/11/21 03:41:17;;;;;;;3.45;2.25;;;;;;;;;;4912859;29;20060;-82
2023/11/21 03:43:44;;;;;;;8.45;2.00;;;;;;;;;;4912297;29;20055;-82
2023/11/21 03:46:15;;;;;;;2.40;1.77;;;;;;;;;;4900248;29;20052;-82
2023/11/21 03:48:43;;;;;;;2.75;1.25;;;;;;;;;;4927527;29;20059;-82
2023/11/21 03:51:11;;;;;;;2.22;1.60;;;;;;;;;;4924588;29;20062;-82
2023/11/21 03:53:39;;;;;;;5.07;2.15;;;;;;;;;;4911375;29;20928;-81
2023/11/21 03:56:10;;;;;;;5.53;2.40;;;;;;;;;;4904124;29;20048;-81
2023/11/21 03:58:40;;;;;;;2.90;2.15;;;;;;;;;;4935756;29;20063;-81
2023/11/21 04:01:07;;;;;;;2.25;1.75;;;;;;;;;;4908549;29;20063;-81
2023/11/21 04:03:35;;;;;;;4.80;3.15;;;;;;;;;;4911672;29;20063;-81
2023/11/21 04:06:03;;;;;;;3.95;2.67;;;;;;;;;;4925470;29;20056;-81
2023/11/21 04:08:33;;;;;;;3.70;2.15;;;;;;;;;;4906164;29;20056;-81
2023/11/21 04:11:04;;;;;;;2.53;1.98;;;;;;;;;;4920751;29;20071;-81
2023/11/21 04:13:33;;;;;;;7.35;2.83;;;;;;;;;;4903675;29;20059;-81
2023/11/21 04:16:03;;;;;;;3.38;2.10;;;;;;;;;;4914596;29;20075;-81
2023/11/21 04:18:30;;;;;;;5.65;2.85;;;;;;;;;;4917301;29;20514;-81
2023/11/21 04:20:59;;;;;;;2.90;2.53;;;;;;;;;;4917659;29;20063;-81
2023/11/21 04:23:28;;;;;;;3.85;2.85;;;;;;;;;;4902523;29;20056;-81
2023/11/21 04:25:57;;;;;;;6.03;2.83;;;;;;;;;;4917149;29;20047;-82
2023/11/21 04:28:24;;;;;;;6.40;3.25;;;;;;;;;;4919139;29;20063;-82
2023/11/21 04:30:51;;;;;;;5.60;2.55;;;;;;;;;;4914760;29;20401;-82
2023/11/21 04:33:18;;;;;;;4.63;3.17;;;;;;;;;;4923672;29;20048;-82
2023/11/21 04:35:48;;;;;;;3.67;3.08;;;;;;;;;;4922678;29;20044;-82
2023/11/21 04:38:15;;;;;;;2.88;2.28;;;;;;;;;;4913232;29;20391;-82
2023/11/21 04:40:42;;;;;;;4.18;3.05;;;;;;;;;;4910436;29;20052;-82
2023/11/21 04:43:16;;;;;;;3.65;3.35;;;;;;;;;;4919587;29;20048;-82
2023/11/21 04:45:43;;;;;;;3.45;3.13;;;;;;;;;;4917452;29;20419;-82
2023/11/21 04:48:14;;;;;;;3.78;2.65;;;;;;;;;;4917448;29;20048;-82
2023/11/21 04:50:41;;;;;;;5.22;2.78;;;;;;;;;;4917547;29;20052;-82
2023/11/21 04:53:08;;;;;;;3.67;2.40;;;;;;;;;;4931946;29;20040;-82
2023/11/21 04:55:35;;;;;;;7.47;4.18;;;;;;;;;;4905922;29;20051;-82
2023/11/21 04:58:04;;;;;;;8.02;3.70;;;;;;;;;;4902549;29;20048;-81
2023/11/21 05:00:33;;;;;;;5.15;3.10;;;;;;;;;;4900066;29;20064;-81
2023/11/21 05:03:01;;;;;;;3.88;2.38;;;;;;;;;;4902447;29;20044;-81
2023/11/21 05:05:29;;;;;;;4.45;2.75;;;;;;;;;;4925557;29;20040;-81
2023/11/21 05:07:56;;;;;;;3.25;2.92;;;;;;;;;;4920407;29;20060;-82
2023/11/21 05:10:23;;;;;;;3.72;2.55;;;;;;;;;;4902492;29;20052;-82
2023/11/21 05:12:51;;;;;;;3.13;2.83;;;;;;;;;;4904567;29;20682;-82
2023/11/21 05:15:18;;;;;;;3.10;2.65;;;;;;;;;;4900963;29;20048;-81
2023/11/21 05:17:51;;;;;;;12.43;3.30;;;;;;;;;;4924127;29;20051;-82
2023/11/21 05:20:21;;;;;;;3.05;2.70;;;;;;;;;;4918443;29;20052;-81
2023/11/21 05:22:49;;;;;;;3.13;2.67;;;;;;;;;;4902837;29;20052;-81
2023/11/21 05:25:18;;;;;;;3.90;2.25;;;;;;;;;;4901235;29;20060;-81
2023/11/21 05:27:45;;;;;;;3.60;2.75;;;;;;;;;;4920998;29;20059;-82
2023/11/21 05:30:15;;;;;;;3.42;2.80;;;;;;;;;;4913297;29;20071;-82
2023/11/21 05:32:43;;;;;;;3.88;2.85;;;;;;;;;;4915093;29;20057;-82
2023/11/21 05:35:15;;;;;;;4.72;3.10;;;;;;;;;;4917897;29;20510;-82
2023/11/21 05:37:46;;;;;;;5.68;3.05;;;;;;;;;;4901031;29;20052;-82
2023/11/21 05:40:16;;;;;;;6.00;3.55;;;;;;;;;;4916932;29;20063;-82
2023/11/21 05:42:43;;;;;;;4.22;3.38;;;;;;;;;;4900241;29;20514;-82
2023/11/21 05:45:11;;;;;;;2.88;2.55;;;;;;;;;;4900274;29;20048;-82
2023/11/21 05:47:41;;;;;;;5.22;3.03;;;;;;;;;;4923566;29;20068;-82
2023/11/21 05:50:11;;;;;;;4.53;3.45;;;;;;;;;;4919416;29;20059;-82
2023/11/21 05:52:43;;;;;;;8.35;3.38;;;;;;;;;;4917385;29;20051;-79
2023/11/21 05:55:10;;;;;;;3.70;3.13;;;;;;;;;;4897361;29;21853;-79
2023/11/21 05:57:41;;;;;;;4.57;3.42;;;;;;;;;;4908659;29;20051;-78
2023/11/21 06:00:15;;;;;;;4.90;3.63;;;;;;;;;;4897515;29;20064;-78
2023/11/21 06:02:42;;;;;;;4.10;3.72;;;;;;;;;;4895845;29;20048;-78
2023/11/21 06:05:10;;;;;;;4.25;3.42;;;;;;;;;;4914418;29;20048;-78
2023/11/21 06:07:38;;;;;;;3.10;2.88;;;;;;;;;;4912866;29;20086;-78
2023/11/21 06:10:12;;;;;;;3.53;3.22;;;;;;;;;;4914252;29;20064;-78
2023/11/21 06:12:44;;;;;;;6.38;3.13;;;;;;;;;;4913311;29;20055;-78
2023/11/21 06:15:13;;;;;;;4.57;4.00;;;;;;;;;;4910727;29;20063;-78
2023/11/21 06:17:49;;;;;;;;;;;;;;;;;;4914496;29;20055;-78
2023/11/21 06:20:18;;;;;;;4.13;3.13;;;;;;;;;;4915640;29;19923;-78
2023/11/21 06:22:50;;;;;;;5.53;3.42;;;;;;;;;;4910617;29;20052;-79
2023/11/21 06:25:19;;;;;;;4.03;3.53;;;;;;;;;;4914568;29;20052;-79
2023/11/21 06:27:49;;;;;;;5.68;3.70;;;;;;;;;;4913629;29;20404;-79
2023/11/21 06:30:19;;;;;;;3.50;2.88;;;;;;;;;;4898380;29;20059;-79
2023/11/21 06:32:51;;;;;;;5.95;3.85;;;;;;;;;;4898894;29;20048;-79
2023/11/21 06:35:18;;;;;;;5.53;4.63;;;;;;;;;;4914356;29;20056;-79
2023/11/21 06:37:48;;;;;;;5.88;5.28;;;;;;;;;;4890754;29;20518;-79
2023/11/21 06:40:16;;;;;;;5.35;4.80;;;;;;;;;;4896630;29;20056;-79
2023/11/21 06:42:47;;;;;;;6.13;4.60;;;;;;;;;;4912333;29;20055;-79
2023/11/21 06:45:16;;;;;;;5.40;4.70;;;;;;;;;;4898601;29;20056;-79
2023/11/21 06:47:44;;;;;;;5.57;4.45;;;;;;;;;;4913273;29;20052;-79
2023/11/21 06:50:11;;;;;;;5.78;3.97;;;;;;;;;;4902179;29;20060;-79
2023/11/21 06:52:39;;;;;;;4.28;3.88;;;;;;;;;;4903014;29;20060;-79
2023/11/21 06:55:11;;;;;;;5.55;4.22;;;;;;;;;;4913568;29;20060;-79
2023/11/21 06:57:40;;;;;;;4.15;3.72;;;;;;;;;;4913490;29;20388;-79
2023/11/21 07:00:12;;;;;;;6.30;4.40;;;;;;;;;;4897874;29;20525;-79
2023/11/21 07:02:39;;;;;;;5.05;3.90;;;;;;;;;;4913684;29;20503;-79
2023/11/21 07:05:09;;;;;;;5.13;3.95;;;;;;;;;;4896528;29;20052;-79
2023/11/21 07:07:38;;;;;;;4.88;3.53;;;;;;;;;;4898283;29;20066;-79
2023/11/21 07:10:06;;;;;;;6.57;3.85;;;;;;;;;;4895147;29;20064;-79
2023/11/21 07:12:34;;;;;;;7.53;5.05;;;;;;;;;;4912581;29;20507;-79
2023/11/21 07:15:02;;;;;;;4.70;4.22;;;;;;;;;;4913203;29;20094;-79
2023/11/21 07:17:31;;;;;;;10.40;4.30;;;;;;;;;;4897605;29;20055;-79
2023/11/21 07:20:00;;;;;;;5.55;3.97;;;;;;;;;;4912283;29;20422;-79
2023/11/21 07:22:27;;;;;;;4.82;4.32;;;;;;;;;;4897672;29;20580;-79
2023/11/21 07:24:56;;;;;;;4.35;3.95;;;;;;;;;;4914612;29;20071;-79
2023/11/21 07:27:23;;;;;;;4.72;4.22;;;;;;;;;;4901746;29;20043;-79
2023/11/21 07:29:53;;;;;;;5.47;3.90;;;;;;;;;;4901964;29;20063;-79
2023/11/21 07:32:27;;;;;;;4.35;3.95;;;;;;;;;;4902112;29;20074;-79
2023/11/21 07:34:58;;;;;;;4.70;4.13;;;;;;;;;;4917081;29;20056;-79
2023/11/21 07:37:28;;;;;;;4.78;4.28;;;;;;;;;;4902380;29;20048;-79
2023/11/21 07:39:57;;;;;;;6.75;6.22;;;;;;;;;;4919032;29;20059;-79
2023/11/21 07:42:27;;;;;;;5.05;4.55;;;;;;;;;;4924776;29;20040;-79
2023/11/21 07:44:57;;;;;;;6.25;5.07;;;;;;;;;;4901663;29;20062;-79
2023/11/21 07:47:27;;;;;;;7.55;4.68;;;;;;;;;;4917070;29;20052;-79
2023/11/21 07:49:58;;;;;;;6.82;4.10;;;;;;;;;;4896763;29;20059;-79
2023/11/21 07:52:25;;;;;;;6.05;4.97;;;;;;;;;;4900931;29;20819;-79
2023/11/21 07:54:54;;;;;;;5.45;4.60;;;;;;;;;;4911815;29;20389;-79
2023/11/21 07:57:22;;;;;;;7.68;5.60;;;;;;;;;;4914188;29;20071;-79
2023/11/21 07:59:53;;;;;;;6.07;4.80;;;;;;;;;;4917715;29;20684;-78
2023/11/21 08:02:22;;;;;;;5.15;4.50;;;;;;;;;;4917100;29;20059;-79
2023/11/21 08:04:52;;;;;;;6.38;4.95;;;;;;;;;;4898938;29;20047;-79
2023/11/21 08:07:21;;;;;;;6.03;4.93;;;;;;;;;;4900522;29;20056;-79
2023/11/21 08:09:49;;;;;;;5.68;5.00;;;;;;;;;;4911747;29;20048;-79
2023/11/21 08:12:17;;;;;;;5.13;4.35;;;;;;;;;;4916475;29;20048;-79
2023/11/21 08:14:47;;;;;;;5.07;4.07;;;;;;;;;;4915209;29;20055;-79
2023/11/21 08:17:16;;;;;;;5.43;4.43;;;;;;;;;;4900727;29;20065;-79
2023/11/21 08:19:49;;;;;;;4.72;4.30;;;;;;;;;;4917667;29;20052;-79
2023/11/21 08:22:17;;;;;;;6.00;5.15;;;;;;;;;;4917320;29;20055;-79
2023/11/21 08:24:46;;;;;;;6.38;4.63;;;;;;;;;;4901070;29;20048;-79
2023/11/21 08:27:16;;;;;;;6.47;5.65;;;;;;;;;;4913097;29;20047;-79
2023/11/21 08:29:46;;;;;;;7.10;6.20;;;;;;;;;;4914487;29;20067;-79
2023/11/21 08:32:16;;;;;;;8.90;6.70;;;;;;;;;;4897498;29;20059;-79
2023/11/21 08:34:46;;;;;;;8.45;6.60;;;;;;;;;;4899479;29;20044;-79
2023/11/21 08:37:16;;;;;;;8.63;6.38;;;;;;;;;;4908642;29;20055;-79
2023/11/21 08:39:48;;;;;;;7.72;5.78;;;;;;;;;;4896056;29;20060;-79
2023/11/21 08:42:17;;;;;;;8.98;7.20;;;;;;;;;;4900870;29;20052;-79
2023/11/21 08:44:47;;;;;;;7.88;6.93;;;;;;;;;;4895262;29;20055;-79
2023/11/21 08:47:14;;;;;;;10.27;6.40;;;;;;;;;;4900907;29;20443;-79
2023/11/21 08:49:44;;;;;;;9.93;7.32;;;;;;;;;;4916168;29;20055;-79
2023/11/21 08:52:12;;;;;;;10.23;6.10;;;;;;;;;;4910461;29;20122;-79
2023/11/21 08:54:40;;;;;;;8.27;6.32;;;;;;;;;;4904331;29;20048;-79
2023/11/21 08:57:13;;;;;;;10.47;7.70;;;;;;;;;;4918688;29;20051;-79
2023/11/21 08:59:40;;;;;;;9.90;5.85;;;;;;;;;;4913582;29;20059;-79
2023/11/21 09:02:10;;;;;;;5.85;4.85;;;;;;;;;;4902404;29;20060;-79
2023/11/21 09:04:39;;;;;;;9.98;6.90;;;;;;;;;;4901960;29;20048;-79
2023/11/21 09:07:06;;;;;;;8.70;6.35;;;;;;;;;;4919325;29;20048;-79
2023/11/21 09:09:36;;;;;;;9.05;5.97;;;;;;;;;;4917951;29;20063;-79
2023/11/21 09:12:12;;;;;;;6.47;5.85;;;;;;;;;;4918582;29;20390;-79
2023/11/21 09:14:43;;;;;;;;;;;;;;;;;;4903507;29;20059;-79
2023/11/21 09:17:14;;;;;;;6.47;5.18;;;;;;;;;;4917053;29;20394;-80
2023/11/21 09:19:45;;;;;;;5.63;4.68;;;;;;;;;;4896188;29;20055;-80
2023/11/21 09:22:12;;;;;;;5.72;4.28;;;;;;;;;;4901053;29;20060;-80
2023/11/21 09:24:42;;;;;;;5.75;4.30;;;;;;;;;;4910513;29;20055;-80
2023/11/21 09:27:09;;;;;;;4.28;3.88;;;;;;;;;;4914704;29;20063;-80
2023/11/21 09:29:37;;;;;;;3.60;3.30;;;;;;;;;;4915386;29;20063;-80
2023/11/21 09:32:07;;;;;;;4.22;3.63;;;;;;;;;;4919862;29;20056;-80
2023/11/21 09:34:38;;;;;;;4.45;3.25;;;;;;;;;;4921548;29;20048;-80
2023/11/21 09:37:06;;;;;;;4.63;3.70;;;;;;;;;;4907652;29;20515;-80
2023/11/21 09:39:35;;;;;;;4.55;3.13;;;;;;;;;;4917977;29;20063;-80
2023/11/21 09:42:08;;;;;;;3.38;2.88;;;;;;;;;;4918238;29;20051;-80
2023/11/21 09:44:37;;;;;;;2.42;1.77;;;;;;;;;;4900770;29;20060;-80
2023/11/21 09:47:10;;;;;;;2.45;1.98;;;;;;;;;;4919884;29;20051;-80
2023/11/21 09:49:38;;;;;;;1.52;1.30;;;;;;;;;;4899019;29;20056;-80
2023/11/21 09:52:07;;;;;;;2.45;1.00;;;;;;;;;;4917830;29;20063;-78
2023/11/21 09:54:39;;;;;;;;;;;;;;;;;;4915244;29;20054;-78
2023/11/21 09:57:09;;;;;;;0.65;0.50;;;;;;;;;;4908699;29;19923;-78
2023/11/21 09:59:38;;;;;;;0.65;0.65;;;;;;;;;;4891610;29;20072;-78
2023/11/21 10:02:06;;;;;;;2.35;1.38;;;;;;;;;;4914349;29;20047;-78
2023/11/21 10:04:35;;;;;;;0.80;0.70;;;;;;;;;;4898728;29;20648;-78
2023/11/21 10:07:03;;;;;;;0.93;0.75;;;;;;;;;;4900326;29;20055;-80
2023/11/21 10:09:32;;;;;;;1.25;0.70;;;;;;;;;;4901882;29;20047;-80
2023/11/21 10:12:03;;;;;;;0.85;0.77;;;;;;;;;;4916757;29;20055;-80
2023/11/21 10:14:36;;;;;;;0.70;0.50;;;;;;;;;;4898307;29;20059;-80
2023/11/21 10:17:08;;;;;;;0.77;0.47;;;;;;;;;;4894136;29;20053;-80
2023/11/21 10:19:37;;;;;;;0.57;0.30;;;;;;;;;;4915018;29;20511;-80
2023/11/21 10:22:04;;;;;;;0.85;0.40;;;;;;;;;;4914423;29;20052;-80
2023/11/21 10:24:31;;;;;;;0.43;0.43;;;;;;;;;;4917328;29;20414;-80
2023/11/21 10:26:58;;;;;;;0.82;0.63;;;;;;;;;;4918063;29;20044;-80
2023/11/21 17:31:54;;;;;;;4.20;3.80;;;;;;;;;;5789951;23;20011;-80
2023/11/21 22:29:10;;;;;;;2.40;2.17;;;;;;;;;;4965027;23;20043;-81
2023/11/21 22:31:48;;;;;;;1.98;1.30;;;;;;;;;;4959707;28;20043;-80
2023/11/21 22:34:24;;;;;;;3.28;2.42;;;;;;;;;;4946476;28;20061;-80
2023/11/21 22:36:52;;;;;;;2.35;1.90;;;;;;;;;;4960591;28;20049;-80
2023/11/21 22:39:22;;;;;;;2.25;1.73;;;;;;;;;;4975046;28;20050;-80
2023/11/21 22:41:58;;;;;;;3.60;2.47;;;;;;;;;;4932599;28;20553;-78
2023/11/21 22:44:27;;;;;;;2.83;2.00;;;;;;;;;;4938949;28;20442;-78
2023/11/21 22:46:59;;;;;;;2.75;2.05;;;;;;;;;;4953365;28;20047;-78
2023/11/21 22:49:28;;;;;;;2.63;2.25;;;;;;;;;;4954416;28;20042;-78
2023/11/21 22:51:56;;;;;;;4.03;1.67;;;;;;;;;;4939330;28;20046;-78
2023/11/21 22:54:23;;;;;;;1.90;1.30;;;;;;;;;;4939218;28;20413;-78
2023/11/21 22:56:51;;;;;;;3.03;1.48;;;;;;;;;;4954138;28;20069;-78
2023/11/21 22:59:19;;;;;;;1.67;1.25;;;;;;;;;;4932548;28;20067;-78
2023/11/21 23:01:49;;;;;;;2.22;1.60;;;;;;;;;;4938776;28;20062;-78
2023/11/21 23:04:18;;;;;;;2.17;1.58;;;;;;;;;;4954723;28;20047;-78
2023/11/21 23:06:46;;;;;;;3.65;1.45;;;;;;;;;;4954723;28;20416;-78
2023/11/21 23:09:15;;;;;;;1.00;0.80;;;;;;;;;;4954449;28;20112;-78
2023/11/21 23:11:45;;;;;;;1.40;1.00;;;;;;;;;;4938526;28;20055;-78
2023/11/21 23:14:13;;;;;;;2.28;1.10;;;;;;;;;;4938436;28;20097;-78
2023/11/21 23:16:40;;;;;;;1.05;0.90;;;;;;;;;;4938734;28;20051;-78
2023/11/21 23:19:14;;;;;;;2.10;1.10;;;;;;;;;;4938658;28;20042;-78
2023/11/21 23:21:41;;;;;;;2.03;1.05;;;;;;;;;;4940168;28;20045;-78
2023/11/21 23:24:10;;;;;;;1.55;1.10;;;;;;;;;;4938534;28;20189;-78
2023/11/21 23:26:38;;;;;;;1.88;1.20;;;;;;;;;;4954984;28;20058;-78
2023/11/21 23:29:06;;;;;;;4.45;1.00;;;;;;;;;;4954830;28;20042;-78
2023/11/21 23:31:33;;;;;;;1.33;1.13;;;;;;;;;;4954450;28;20043;-78
2023/11/21 23:34:01;;;;;;;2.17;1.77;;;;;;;;;;4939012;28;20051;-78
2023/11/21 23:36:30;;;;;;;1.38;0.90;;;;;;;;;;4953623;28;20042;-78
2023/11/21 23:38:57;;;;;;;1.33;0.95;;;;;;;;;;4954230;28;20394;-78
2023/11/21 23:41:24;;;;;;;1.55;1.10;;;;;;;;;;4938905;28;20394;-78
2023/11/21 23:43:51;;;;;;;1.50;1.13;;;;;;;;;;4955275;28;20058;-78
2023/11/21 23:46:19;;;;;;;1.65;1.30;;;;;;;;;;4954796;28;20050;-78
2023/11/21 23:48:46;;;;;;;2.10;1.60;;;;;;;;;;4960748;28;20501;-78
2023/11/21 23:51:19;;;;;;;1.75;1.20;;;;;;;;;;4972197;28;20058;-78
2023/11/21 23:53:48;;;;;;;2.20;1.63;;;;;;;;;;4932950;28;20059;-78
2023/11/21 23:56:15;;;;;;;1.20;0.90;;;;;;;;;;4938589;28;20047;-78
2023/11/21 23:58:43;;;;;;;2.13;1.60;;;;;;;;;;4938281;28;20074;-78
